Time;durP1;ratioP1;P1;durP2;ratioP2;P2;SDS_P1;SDS_P2;PMS_P1;PMS_P2;Temp;Humidity;BMP_temperature;BMP_pressure;BME280_temperature;BME280_humidity;BME280_pressure;Samples;Min_cycle;Max_cycle;Signal;HPM_P1;HPM_P2
2023/09/27 00:01:08;;;;;;;;;;;15.00;99.90;;;;;;5028549;28;20045;-75
2023/09/27 00:03:34;;;;;;;0.30;0.30;;;14.90;99.90;;;;;;5028411;28;19921;-75
2023/09/27 00:05:59;;;;;;;;;;;14.90;99.90;;;;;;5026601;28;20107;-75
2023/09/27 00:08:26;;;;;;;0.35;0.35;;;14.80;99.90;;;;;;5027983;28;19929;-75
2023/09/27 00:10:51;;;;;;;0.75;0.75;;;14.80;99.90;;;;;;5027743;28;20463;-75
2023/09/27 00:13:17;;;;;;;0.32;0.32;;;14.80;99.90;;;;;;5028060;28;20107;-75
2023/09/27 00:15:43;;;;;;;;;;;14.80;99.90;;;;;;5026943;28;20057;-74
2023/09/27 00:18:09;;;;;;;0.30;0.30;;;14.80;99.90;;;;;;5027872;28;19987;-74
2023/09/27 00:20:35;;;;;;;;;;;14.80;99.90;;;;;;5028696;28;20337;-74
2023/09/27 00:23:01;;;;;;;1.05;1.05;;;14.80;99.90;;;;;;5028308;28;21612;-74
2023/09/27 00:25:27;;;;;;;0.45;0.45;;;14.90;99.90;;;;;;5024943;28;20133;-74
2023/09/27 00:27:52;;;;;;;0.30;0.30;;;14.90;99.90;;;;;;5031870;28;20555;-75
2023/09/27 00:30:18;;;;;;;0.75;0.68;;;15.00;99.90;;;;;;5030509;28;20041;-74
2023/09/27 00:32:47;;;;;;;;;;;15.00;99.90;;;;;;5031813;28;20447;-74
2023/09/27 00:35:22;;;;;;;0.38;0.38;;;15.00;99.90;;;;;;5031434;28;20319;-75
2023/09/27 00:37:49;;;;;;;0.43;0.43;;;15.00;99.90;;;;;;5029433;28;20056;-75
2023/09/27 00:40:18;;;;;;;0.90;0.90;;;14.90;99.90;;;;;;5030164;28;20095;-74
2023/09/27 00:42:44;;;;;;;0.20;0.20;;;14.90;99.90;;;;;;5030970;28;20120;-75
2023/09/27 00:45:10;;;;;;;;;;;14.80;99.90;;;;;;5031616;28;20053;-74
2023/09/27 00:47:37;;;;;;;0.50;0.50;;;14.80;99.90;;;;;;5030878;28;19925;-74
2023/09/27 00:50:03;;;;;;;0.38;0.38;;;14.70;99.90;;;;;;5031339;28;20115;-74
2023/09/27 00:52:30;;;;;;;0.32;0.32;;;14.60;99.90;;;;;;5030616;28;20045;-74
2023/09/27 00:54:57;;;;;;;0.77;0.77;;;14.60;99.90;;;;;;5031634;28;20049;-74
2023/09/27 00:57:23;;;;;;;0.30;0.30;;;14.60;99.90;;;;;;5029557;28;20142;-74
2023/09/27 00:59:49;;;;;;;0.30;0.30;;;14.60;99.90;;;;;;5031607;28;20054;-74
2023/09/27 01:02:16;;;;;;;0.75;0.75;;;14.60;99.90;;;;;;5030981;28;20045;-74
2023/09/27 01:04:43;;;;;;;0.50;0.50;;;14.60;99.90;;;;;;5030790;28;20049;-74
2023/09/27 01:07:09;;;;;;;0.85;0.85;;;14.60;99.90;;;;;;5029965;28;20456;-74
2023/09/27 01:09:37;;;;;;;0.70;0.70;;;14.60;99.90;;;;;;5030588;28;20052;-74
2023/09/27 01:12:03;;;;;;;0.40;0.40;;;14.60;99.90;;;;;;5031367;28;20121;-75
2023/09/27 01:14:30;;;;;;;1.23;0.77;;;14.60;99.90;;;;;;5030803;28;20038;-74
2023/09/27 01:16:55;;;;;;;0.40;0.40;;;14.60;99.90;;;;;;5030452;28;20049;-75
2023/09/27 01:19:21;;;;;;;1.25;1.15;;;14.60;99.90;;;;;;5029488;28;20053;-74
2023/09/27 01:21:47;;;;;;;;;;;14.70;99.90;;;;;;5030833;28;20052;-74
2023/09/27 01:24:13;;;;;;;1.25;1.02;;;14.70;99.90;;;;;;5044930;28;19925;-74
2023/09/27 01:26:39;;;;;;;0.50;0.50;;;14.70;99.90;;;;;;5030192;28;20053;-75
2023/09/27 01:29:05;;;;;;;0.43;0.43;;;14.60;99.90;;;;;;5029255;28;20045;-75
2023/09/27 01:31:32;;;;;;;0.38;0.38;;;14.60;99.90;;;;;;5028955;28;20045;-74
2023/09/27 01:33:57;;;;;;;0.40;0.40;;;14.60;99.90;;;;;;5030371;28;20046;-75
2023/09/27 01:36:23;;;;;;;0.40;0.40;;;14.60;99.90;;;;;;5030217;28;20054;-75
2023/09/27 01:38:48;;;;;;;0.50;0.50;;;14.50;99.90;;;;;;5028530;28;20137;-75
2023/09/27 01:41:14;;;;;;;0.80;0.80;;;14.50;99.90;;;;;;5029325;28;20104;-75
2023/09/27 01:43:40;;;;;;;;;;;15.10;99.90;;;;;;5028828;28;20048;-75
2023/09/27 01:46:05;;;;;;;0.22;0.22;;;14.40;99.90;;;;;;5029375;28;20431;-75
2023/09/27 01:48:31;;;;;;;0.40;0.40;;;14.40;99.90;;;;;;5029376;28;20390;-75
2023/09/27 01:50:57;;;;;;;0.20;0.20;;;14.40;99.90;;;;;;5027965;28;20041;-75
2023/09/27 01:53:22;;;;;;;0.40;0.40;;;14.40;99.90;;;;;;5029828;28;20084;-75
2023/09/27 01:55:48;;;;;;;0.70;0.70;;;14.40;99.90;;;;;;5029023;28;20053;-75
2023/09/27 01:58:14;;;;;;;0.40;0.40;;;14.40;99.90;;;;;;5029762;28;20041;-75
2023/09/27 02:00:39;;;;;;;;;;;14.40;99.90;;;;;;5029702;28;20768;-75
2023/09/27 02:03:05;;;;;;;0.40;0.40;;;14.40;99.90;;;;;;5030038;28;19979;-75
2023/09/27 02:05:31;;;;;;;1.85;0.77;;;14.40;99.90;;;;;;5028779;28;20042;-75
2023/09/27 02:07:57;;;;;;;;;;;14.30;99.90;;;;;;5030822;28;20049;-75
2023/09/27 02:10:23;;;;;;;0.40;0.40;;;14.30;99.90;;;;;;5027684;28;20383;-75
2023/09/27 02:12:49;;;;;;;0.50;0.50;;;14.20;99.90;;;;;;5029862;28;20098;-75
2023/09/27 02:15:15;;;;;;;;;;;14.20;99.90;;;;;;5029058;28;20053;-75
2023/09/27 02:17:42;;;;;;;0.25;0.25;;;14.20;99.90;;;;;;5029220;28;19947;-75
2023/09/27 02:20:13;;;;;;;0.20;0.20;;;14.10;99.90;;;;;;5029431;28;20048;-75
2023/09/27 02:22:41;;;;;;;1.45;1.35;;;14.00;99.90;;;;;;5026812;28;20079;-75
2023/09/27 02:25:09;;;;;;;0.22;0.22;;;13.90;99.90;;;;;;5030158;28;20124;-75
2023/09/27 02:27:36;;;;;;;0.40;0.40;;;13.80;99.90;;;;;;5028231;28;20064;-75
2023/09/27 02:30:03;;;;;;;0.30;0.30;;;13.70;99.90;;;;;;5028763;28;20084;-75
2023/09/27 02:32:29;;;;;;;0.25;0.25;;;13.70;99.90;;;;;;5028891;28;20044;-75
2023/09/27 02:34:55;;;;;;;0.30;0.30;;;13.60;99.90;;;;;;5028905;28;20538;-75
2023/09/27 02:37:20;;;;;;;0.63;0.63;;;13.50;99.90;;;;;;5028686;28;20124;-75
2023/09/27 02:39:47;;;;;;;0.60;0.60;;;13.50;99.90;;;;;;5028628;28;20056;-75
2023/09/27 02:42:12;;;;;;;0.63;0.63;;;13.40;99.90;;;;;;5025528;28;20134;-75
2023/09/27 02:44:38;;;;;;;2.30;1.92;;;13.40;99.90;;;;;;5029220;28;20753;-75
2023/09/27 02:47:06;;;;;;;0.30;0.30;;;13.30;99.90;;;;;;5029045;28;20041;-75
2023/09/27 02:49:34;;;;;;;0.85;0.85;;;13.30;99.90;;;;;;5028066;28;20415;-75
2023/09/27 02:52:00;;;;;;;0.35;0.35;;;13.20;99.90;;;;;;5029478;28;20121;-75
2023/09/27 02:54:26;;;;;;;0.50;0.50;;;13.20;99.90;;;;;;5028783;28;20474;-75
2023/09/27 02:56:52;;;;;;;0.38;0.38;;;13.10;99.90;;;;;;5029029;28;20381;-75
2023/09/27 02:59:18;;;;;;;0.55;0.40;;;13.10;99.90;;;;;;5027325;28;20048;-75
2023/09/27 03:01:43;;;;;;;0.22;0.22;;;13.10;99.90;;;;;;5028548;28;20124;-75
2023/09/27 03:04:11;;;;;;;0.70;0.70;;;13.10;99.90;;;;;;5029330;28;20522;-74
2023/09/27 03:06:41;;;;;;;0.95;0.57;;;13.10;99.90;;;;;;5028448;28;20128;-75
2023/09/27 03:09:11;;;;;;;1.75;0.93;;;13.00;99.90;;;;;;5029197;28;20045;-75
2023/09/27 03:11:39;;;;;;;0.50;0.50;;;13.00;99.90;;;;;;5027315;28;20049;-75
2023/09/27 03:14:04;;;;;;;0.40;0.40;;;13.00;99.90;;;;;;5028656;28;20041;-75
2023/09/27 03:16:30;;;;;;;2.10;1.75;;;13.00;99.90;;;;;;5026684;28;20894;-74
2023/09/27 03:18:58;;;;;;;3.80;1.00;;;13.00;99.90;;;;;;5030437;28;20080;-74
2023/09/27 03:21:24;;;;;;;0.60;0.60;;;13.00;99.90;;;;;;5027313;28;20121;-75
2023/09/27 03:23:53;;;;;;;0.50;0.50;;;13.00;99.90;;;;;;5027024;28;20038;-75
2023/09/27 03:26:20;;;;;;;0.30;0.30;;;12.90;99.90;;;;;;5028185;28;20053;-74
2023/09/27 03:28:45;;;;;;;0.40;0.40;;;12.90;99.90;;;;;;5029376;28;20042;-75
2023/09/27 03:31:11;;;;;;;0.50;0.50;;;12.90;99.90;;;;;;5010578;28;20045;-75
2023/09/27 03:33:36;;;;;;;0.10;0.10;;;13.00;99.90;;;;;;5026940;28;20077;-75
2023/09/27 03:36:03;;;;;;;0.40;0.40;;;13.00;99.90;;;;;;5028282;28;20649;-75
2023/09/27 03:38:29;;;;;;;0.30;0.30;;;13.00;99.90;;;;;;5027106;28;20077;-75
2023/09/27 03:40:55;;;;;;;0.40;0.40;;;13.00;99.90;;;;;;5027996;28;20073;-75
2023/09/27 03:43:21;;;;;;;0.40;0.40;;;13.00;99.90;;;;;;5028045;28;20042;-75
2023/09/27 03:45:47;;;;;;;0.30;0.30;;;13.00;99.90;;;;;;5027719;28;20511;-75
2023/09/27 03:48:13;;;;;;;0.47;0.47;;;13.00;99.90;;;;;;5028329;28;20096;-75
2023/09/27 03:50:38;;;;;;;0.38;0.38;;;13.00;99.90;;;;;;5026625;28;20053;-76
2023/09/27 03:53:05;;;;;;;1.17;1.17;;;13.00;99.90;;;;;;5028394;28;20077;-75
2023/09/27 03:55:30;;;;;;;0.40;0.40;;;13.00;99.90;;;;;;5027001;28;20045;-75
2023/09/27 03:57:56;;;;;;;0.25;0.25;;;13.00;99.90;;;;;;5027365;28;20055;-75
2023/09/27 04:00:22;;;;;;;0.30;0.30;;;13.00;99.90;;;;;;5026090;28;20081;-75
2023/09/27 04:02:48;;;;;;;0.93;0.88;;;13.00;99.90;;;;;;5032003;28;20093;-75
2023/09/27 04:05:15;;;;;;;0.57;0.57;;;13.00;99.90;;;;;;5032308;28;20124;-75
2023/09/27 04:07:41;;;;;;;0.85;0.85;;;13.00;99.90;;;;;;5031792;28;20784;-75
2023/09/27 04:10:07;;;;;;;1.00;0.65;;;13.10;99.90;;;;;;5031908;28;20049;-75
2023/09/27 04:12:34;;;;;;;0.73;0.73;;;13.10;99.90;;;;;;5030498;28;20156;-75
2023/09/27 04:15:00;;;;;;;0.77;0.47;;;13.10;99.90;;;;;;5032681;28;20111;-75
2023/09/27 04:17:26;;;;;;;0.65;0.65;;;13.10;99.90;;;;;;5029757;28;20049;-75
2023/09/27 04:19:53;;;;;;;0.55;0.55;;;13.10;99.90;;;;;;5032453;28;20483;-75
2023/09/27 04:22:18;;;;;;;0.50;0.50;;;13.10;99.90;;;;;;5032917;28;20045;-75
2023/09/27 04:24:44;;;;;;;0.70;0.68;;;13.10;99.90;;;;;;5030891;28;20033;-75
2023/09/27 04:27:10;;;;;;;;;;;13.10;99.90;;;;;;5033253;28;20084;-75
2023/09/27 04:29:36;;;;;;;0.40;0.40;;;13.00;99.90;;;;;;5031951;28;19932;-75
2023/09/27 04:32:01;;;;;;;;;;;13.00;99.90;;;;;;5031548;28;20095;-76
2023/09/27 04:34:28;;;;;;;1.40;1.30;;;12.90;99.90;;;;;;5031096;28;19921;-75
2023/09/27 04:36:54;;;;;;;0.47;0.47;;;12.90;99.90;;;;;;5029756;28;20084;-75
2023/09/27 04:39:20;;;;;;;;;;;12.90;99.90;;;;;;5031667;28;20045;-75
2023/09/27 04:41:46;;;;;;;0.40;0.40;;;12.90;99.90;;;;;;5030172;28;19928;-75
2023/09/27 04:44:15;;;;;;;0.98;0.98;;;12.80;99.90;;;;;;5031157;28;20041;-74
2023/09/27 04:46:42;;;;;;;0.57;0.57;;;12.80;99.90;;;;;;5031055;28;20129;-75
2023/09/27 04:49:08;;;;;;;0.90;0.90;;;12.80;99.90;;;;;;5013461;28;20056;-75
2023/09/27 04:51:33;;;;;;;;;;;12.80;99.90;;;;;;5031738;28;20057;-75
2023/09/27 04:54:02;;;;;;;0.30;0.30;;;12.80;99.90;;;;;;5030888;28;19925;-75
2023/09/27 04:56:31;;;;;;;0.20;0.20;;;12.80;99.90;;;;;;5030847;28;20049;-75
2023/09/27 04:58:58;;;;;;;0.80;0.80;;;12.80;99.90;;;;;;5030747;28;20049;-75
2023/09/27 05:01:26;;;;;;;0.30;0.30;;;12.80;99.90;;;;;;5028383;28;20060;-75
2023/09/27 05:03:51;;;;;;;0.82;0.82;;;12.80;99.90;;;;;;5031031;28;20044;-75
2023/09/27 05:06:17;;;;;;;0.50;0.50;;;12.90;99.90;;;;;;5031625;28;20053;-75
2023/09/27 05:08:43;;;;;;;0.60;0.60;;;12.90;99.90;;;;;;5030624;28;20049;-75
2023/09/27 05:11:09;;;;;;;0.65;0.65;;;12.80;99.90;;;;;;5030809;28;20057;-75
2023/09/27 05:13:34;;;;;;;0.60;0.60;;;12.90;99.90;;;;;;5026831;28;20042;-75
2023/09/27 05:16:00;;;;;;;0.77;0.77;;;12.80;99.90;;;;;;5031310;28;20053;-75
2023/09/27 05:18:26;;;;;;;1.48;1.40;;;12.90;99.90;;;;;;5029587;28;20129;-75
2023/09/27 05:20:52;;;;;;;0.68;0.68;;;12.80;99.90;;;;;;5028383;28;20080;-75
2023/09/27 05:23:17;;;;;;;0.82;0.82;;;12.80;99.90;;;;;;5029100;28;20099;-76
2023/09/27 05:25:44;;;;;;;1.55;1.25;;;12.80;99.90;;;;;;5027786;28;20053;-75
2023/09/27 05:28:09;;;;;;;1.48;1.33;;;12.80;99.90;;;;;;5027921;28;20084;-75
2023/09/27 05:30:36;;;;;;;0.68;0.63;;;12.80;99.90;;;;;;5045632;28;20073;-75
2023/09/27 05:33:04;;;;;;;0.73;0.73;;;12.90;99.90;;;;;;5029430;28;20037;-75
2023/09/27 05:35:30;;;;;;;0.30;0.30;;;12.90;99.90;;;;;;5029448;28;20053;-75
2023/09/27 05:37:57;;;;;;;1.15;1.05;;;12.90;99.90;;;;;;5029140;28;20040;-75
2023/09/27 05:40:23;;;;;;;0.52;0.52;;;12.90;99.90;;;;;;5029898;28;20657;-75
2023/09/27 05:42:49;;;;;;;0.38;0.38;;;12.90;99.90;;;;;;5029610;28;20056;-75
2023/09/27 05:45:14;;;;;;;;;;;13.00;99.90;;;;;;5031339;28;20052;-75
2023/09/27 05:47:41;;;;;;;0.40;0.40;;;12.90;99.90;;;;;;5045558;28;19931;-75
2023/09/27 05:50:08;;;;;;;0.52;0.52;;;13.00;99.90;;;;;;5030347;28;20053;-74
2023/09/27 05:52:35;;;;;;;0.50;0.50;;;13.00;99.90;;;;;;5029390;28;20484;-74
2023/09/27 05:55:01;;;;;;;0.55;0.47;;;13.00;99.90;;;;;;5028892;28;20637;-76
2023/09/27 05:57:27;;;;;;;0.95;0.95;;;13.10;99.90;;;;;;5030064;28;20077;-77
2023/09/27 05:59:53;;;;;;;0.45;0.45;;;13.10;99.90;;;;;;5027850;28;20081;-74
2023/09/27 06:02:20;;;;;;;0.30;0.30;;;13.00;99.90;;;;;;5016392;28;20045;-74
2023/09/27 06:04:47;;;;;;;0.30;0.30;;;13.10;99.90;;;;;;5024451;28;20412;-74
2023/09/27 06:07:15;;;;;;;0.20;0.20;;;13.10;99.90;;;;;;5027124;28;20102;-76
2023/09/27 06:09:44;;;;;;;0.30;0.30;;;13.10;99.90;;;;;;5026960;28;20064;-75
2023/09/27 06:12:10;;;;;;;0.40;0.40;;;13.10;99.90;;;;;;5044004;28;20052;-75
2023/09/27 06:14:36;;;;;;;;;;;13.10;99.90;;;;;;5043137;28;20384;-75
2023/09/27 06:17:05;;;;;;;0.30;0.30;;;13.20;99.90;;;;;;5029468;28;19925;-75
2023/09/27 06:19:32;;;;;;;0.30;0.30;;;13.20;99.90;;;;;;5035130;28;20049;-75
2023/09/27 06:21:58;;;;;;;0.52;0.52;;;13.20;99.90;;;;;;5033059;28;20041;-75
2023/09/27 06:24:25;;;;;;;0.30;0.30;;;13.30;99.90;;;;;;5035617;28;20053;-75
2023/09/27 06:26:52;;;;;;;0.30;0.30;;;13.30;99.90;;;;;;5056214;28;20051;-75
2023/09/27 06:29:19;;;;;;;0.30;0.30;;;13.30;99.90;;;;;;5032475;28;20644;-75
2023/09/27 06:31:47;;;;;;;0.25;0.25;;;13.30;99.90;;;;;;5028389;28;20049;-75
2023/09/27 06:34:14;;;;;;;0.20;0.20;;;13.40;99.90;;;;;;5033270;28;20151;-75
2023/09/27 06:36:42;;;;;;;0.20;0.20;;;13.40;99.90;;;;;;5034853;28;20103;-75
2023/09/27 06:39:12;;;;;;;0.30;0.30;;;13.40;99.90;;;;;;5033985;28;20060;-76
2023/09/27 06:41:39;;;;;;;0.52;0.38;;;13.40;99.90;;;;;;5038591;28;20385;-76
2023/09/27 06:44:06;;;;;;;0.20;0.20;;;13.40;99.90;;;;;;5038601;28;20040;-75
2023/09/27 06:46:38;;;;;;;0.70;0.50;;;13.40;99.90;;;;;;5030571;28;20147;-75
2023/09/27 06:49:04;;;;;;;;;;;13.50;99.90;;;;;;5033288;28;20041;-75
2023/09/27 06:51:31;;;;;;;0.40;0.40;;;13.50;99.90;;;;;;5025852;28;19921;-75
2023/09/27 06:53:57;;;;;;;0.30;0.30;;;13.60;99.90;;;;;;5026222;28;20077;-75
2023/09/27 06:56:23;;;;;;;;;;;13.70;99.90;;;;;;5026681;28;20048;-75
2023/09/27 06:58:51;;;;;;;0.28;0.28;;;13.80;99.90;;;;;;5024768;28;19925;-75
2023/09/27 07:01:18;;;;;;;0.30;0.30;;;13.90;99.90;;;;;;5025946;28;20045;-75
2023/09/27 07:03:44;;;;;;;0.30;0.30;;;14.10;99.90;;;;;;5020869;28;20128;-75
2023/09/27 07:06:09;;;;;;;0.32;0.32;;;14.20;99.90;;;;;;5029541;28;20117;-79
2023/09/27 07:08:35;;;;;;;;;;;14.40;99.90;;;;;;5026487;28;20437;-75
2023/09/27 07:11:08;;;;;;;0.20;0.20;;;14.50;99.90;;;;;;5024777;28;19925;-75
2023/09/27 07:13:34;;;;;;;0.32;0.30;;;14.60;99.90;;;;;;5024972;28;20404;-75
2023/09/27 07:16:29;;;;;;;0.30;0.30;;;14.70;99.90;;;;;;5025693;28;20053;-75
2023/09/27 07:18:59;;;;;;;0.80;0.80;;;14.80;99.90;;;;;;5025287;28;20128;-75
2023/09/27 07:21:26;;;;;;;0.25;0.25;;;14.90;99.90;;;;;;5027043;28;20591;-76
2023/09/27 07:23:52;;;;;;;0.68;0.68;;;15.00;99.90;;;;;;5029956;28;20056;-75
2023/09/27 07:26:18;;;;;;;1.45;1.35;;;15.10;99.90;;;;;;5006658;28;20057;-75
2023/09/27 07:28:47;;;;;;;1.15;1.13;;;15.30;99.90;;;;;;5024701;28;20049;-76
2023/09/27 07:31:17;;;;;;;1.83;0.55;;;15.40;99.90;;;;;;5023484;28;20060;-75
2023/09/27 07:33:52;;;;;;;0.63;0.63;;;15.60;99.90;;;;;;5028042;28;20053;-75
2023/09/27 07:36:20;;;;;;;0.95;0.90;;;15.70;99.90;;;;;;5026204;28;20045;-75
2023/09/27 07:38:47;;;;;;;0.30;0.30;;;15.80;99.90;;;;;;5029319;28;20057;-75
2023/09/27 07:41:15;;;;;;;0.40;0.40;;;15.90;99.90;;;;;;5042690;28;20045;-75
2023/09/27 07:43:41;;;;;;;0.20;0.20;;;16.00;99.90;;;;;;5026536;28;20052;-76
2023/09/27 07:46:07;;;;;;;1.80;1.70;;;16.00;99.90;;;;;;5028643;28;20132;-75
2023/09/27 07:48:35;;;;;;;;;;;16.00;99.90;;;;;;5033695;28;20203;-75
2023/09/27 07:51:02;;;;;;;0.85;0.85;;;16.10;99.90;;;;;;5037137;28;19931;-76
2023/09/27 07:53:28;;;;;;;0.73;0.73;;;16.20;99.90;;;;;;5035229;28;20048;-75
2023/09/27 07:55:56;;;;;;;;;;;16.30;99.90;;;;;;5024101;28;20064;-75
2023/09/27 07:58:22;;;;;;;0.73;0.73;;;16.40;99.90;;;;;;5029750;28;19921;-75
2023/09/27 08:00:48;;;;;;;;;;;16.50;99.90;;;;;;5037201;28;20570;-75
2023/09/27 08:03:18;;;;;;;0.98;0.95;;;17.50;99.90;;;;;;5030717;28;19925;-75
2023/09/27 08:05:45;;;;;;;1.52;1.42;;;16.70;99.90;;;;;;5034702;28;20048;-76
2023/09/27 08:08:12;;;;;;;1.55;1.15;;;16.90;99.90;;;;;;5038047;28;20135;-75
2023/09/27 08:10:43;;;;;;;0.60;0.60;;;17.00;99.90;;;;;;5025261;28;20156;-76
2023/09/27 08:13:17;;;;;;;1.35;1.30;;;17.10;99.90;;;;;;5020615;28;20749;-75
2023/09/27 08:15:51;;;;;;;1.13;1.00;;;17.20;99.90;;;;;;5009743;28;20133;-75
2023/09/27 08:18:18;;;;;;;3.20;1.73;;;17.30;99.90;;;;;;5030623;28;20475;-75
2023/09/27 08:20:44;;;;;;;2.03;1.83;;;17.40;99.90;;;;;;5032724;28;20106;-75
2023/09/27 08:23:09;;;;;;;;;;;17.40;99.90;;;;;;5034675;28;20037;-75
2023/09/27 08:25:37;;;;;;;0.75;0.65;;;17.60;99.90;;;;;;5035829;28;20322;-75
2023/09/27 08:28:06;;;;;;;1.20;0.60;;;17.80;99.90;;;;;;5019749;28;20042;-76
2023/09/27 08:30:32;;;;;;;2.13;1.92;;;18.00;99.90;;;;;;5029167;28;20405;-75
2023/09/27 08:32:58;;;;;;;;;;;18.00;99.90;;;;;;5019661;28;20046;-75
2023/09/27 08:35:24;;;;;;;1.42;1.33;;;18.20;99.90;;;;;;5024168;28;19929;-75
2023/09/27 08:37:49;;;;;;;;;;;18.20;99.90;;;;;;5021500;28;20051;-75
2023/09/27 08:40:15;;;;;;;1.33;1.30;;;18.30;99.90;;;;;;5027061;28;19920;-76
2023/09/27 08:42:42;;;;;;;;;;;18.40;99.90;;;;;;5023244;28;20496;-76
2023/09/27 08:45:13;;;;;;;1.50;1.40;;;18.50;99.90;;;;;;5022879;28;19925;-75
2023/09/27 08:47:41;;;;;;;1.27;1.17;;;18.60;99.90;;;;;;5023166;28;20052;-76
2023/09/27 08:50:11;;;;;;;1.35;1.30;;;18.70;99.90;;;;;;5024437;28;20140;-75
2023/09/27 08:52:38;;;;;;;2.03;1.88;;;18.80;99.90;;;;;;5027981;28;20859;-75
2023/09/27 08:55:06;;;;;;;0.40;0.40;;;18.90;99.90;;;;;;5028143;28;20132;-75
2023/09/27 08:57:33;;;;;;;0.50;0.50;;;;;;;;;;5027861;28;20053;-75
2023/09/27 08:59:59;;;;;;;1.73;1.63;;;19.10;99.90;;;;;;5025558;28;20092;-75
2023/09/27 09:02:26;;;;;;;0.40;0.40;;;19.30;99.90;;;;;;5024385;28;20096;-75
2023/09/27 09:04:52;;;;;;;1.35;1.25;;;19.40;99.90;;;;;;5027770;28;20055;-76
2023/09/27 09:07:18;;;;;;;1.60;1.13;;;19.50;99.90;;;;;;5027846;28;20041;-76
2023/09/27 09:09:45;;;;;;;0.73;0.73;;;19.50;99.90;;;;;;5026303;28;20045;-75
2023/09/27 09:12:12;;;;;;;0.80;0.73;;;19.50;99.90;;;;;;5028451;28;20053;-75
2023/09/27 09:14:43;;;;;;;1.33;1.25;;;19.60;99.90;;;;;;5026265;28;20049;-76
2023/09/27 09:17:10;;;;;;;1.55;1.45;;;19.70;99.90;;;;;;5024452;28;20100;-77
2023/09/27 09:19:38;;;;;;;0.75;0.75;;;19.80;99.90;;;;;;5025413;28;20054;-76
2023/09/27 09:22:08;;;;;;;2.50;2.30;;;20.00;99.90;;;;;;5027071;28;20045;-76
2023/09/27 09:24:45;;;;;;;3.65;0.93;;;20.10;99.90;;;;;;5027434;28;20136;-75
2023/09/27 09:27:15;;;;;;;0.60;0.60;;;20.10;99.90;;;;;;5024865;28;20055;-76
2023/09/27 09:29:46;;;;;;;0.75;0.75;;;20.30;99.90;;;;;;5027354;28;20064;-76
2023/09/27 09:32:20;;;;;;;0.45;0.45;;;20.40;99.90;;;;;;5024890;28;20131;-76
2023/09/27 09:34:50;;;;;;;0.52;0.52;;;20.40;99.90;;;;;;5026156;28;20054;-75
2023/09/27 09:37:26;;;;;;;0.90;0.55;;;20.50;99.90;;;;;;5027256;28;20061;-76
2023/09/27 09:39:53;;;;;;;0.55;0.40;;;20.60;99.90;;;;;;5027726;28;20150;-76
2023/09/27 09:42:33;;;;;;;0.50;0.50;;;20.70;99.90;;;;;;5027670;28;20042;-76
2023/09/27 09:45:06;;;;;;;3.30;1.38;;;20.60;99.90;;;;;;5027271;28;20045;-76
2023/09/27 09:47:36;;;;;;;1.25;1.15;;;20.80;99.90;;;;;;5027690;28;20132;-76
2023/09/27 09:50:16;;;;;;;1.33;1.30;;;20.70;99.90;;;;;;5042256;28;20057;-75
2023/09/27 09:52:58;;;;;;;0.40;0.40;;;20.80;99.90;;;;;;5020530;28;20045;-77
2023/09/27 09:55:34;;;;;;;0.82;0.60;;;20.80;99.90;;;;;;5024610;28;20050;-77
2023/09/27 09:58:13;;;;;;;2.25;1.67;;;20.90;99.90;;;;;;5025552;28;20144;-78
2023/09/27 10:00:49;;;;;;;0.55;0.55;;;20.90;99.90;;;;;;5025443;28;20716;-77
2023/09/27 10:03:20;;;;;;;0.77;0.70;;;21.00;99.90;;;;;;5022781;28;20042;-76
2023/09/27 10:05:49;;;;;;;1.45;1.10;;;20.60;99.90;;;;;;5028594;28;20053;-77
2023/09/27 10:08:16;;;;;;;0.22;0.22;;;21.20;99.90;;;;;;5025872;28;20745;-76
2023/09/27 10:10:42;;;;;;;0.40;0.40;;;21.20;99.90;;;;;;5026178;28;20133;-76
2023/09/27 10:13:09;;;;;;;4.28;0.60;;;21.20;99.90;;;;;;5025177;28;20116;-77
2023/09/27 10:15:37;;;;;;;0.75;0.75;;;21.30;99.90;;;;;;5023972;28;20447;-77
2023/09/27 10:18:21;;;;;;;0.70;0.70;;;21.30;99.90;;;;;;5026405;28;20496;-77
2023/09/27 10:21:02;;;;;;;6.18;1.42;;;21.40;99.90;;;;;;5026077;28;20046;-76
2023/09/27 10:23:45;;;;;;;0.30;0.30;;;21.40;99.90;;;;;;5023135;28;20546;-77
2023/09/27 10:26:26;;;;;;;0.22;0.22;;;21.40;99.90;;;;;;5024630;28;20499;-77
2023/09/27 10:29:01;;;;;;;0.60;0.60;;;21.60;99.90;;;;;;5024991;28;20048;-75
2023/09/27 10:31:28;;;;;;;0.43;0.43;;;21.70;99.90;;;;;;5023084;28;20060;-75
2023/09/27 10:33:54;;;;;;;0.20;0.20;;;21.80;99.90;;;;;;5022701;28;20115;-74
2023/09/27 10:36:19;;;;;;;0.40;0.40;;;21.70;99.90;;;;;;5020347;28;20049;-75
2023/09/27 10:38:45;;;;;;;0.20;0.20;;;21.70;99.90;;;;;;5022165;28;20092;-75
2023/09/27 10:41:33;;;;;;;0.30;0.30;;;21.50;99.90;;;;;;5018180;28;20049;-74
2023/09/27 10:44:02;;;;;;;0.45;0.45;;;21.40;99.90;;;;;;5020806;28;20049;-74
2023/09/27 10:46:40;;;;;;;0.30;0.30;;;21.40;99.90;;;;;;5021082;28;20045;-75
2023/09/27 10:49:06;;;;;;;0.20;0.20;;;21.30;99.90;;;;;;5025690;28;20116;-75
2023/09/27 10:51:31;;;;;;;0.35;0.35;;;21.30;99.90;;;;;;5023433;28;20201;-75
2023/09/27 10:53:57;;;;;;;0.20;0.20;;;21.30;99.90;;;;;;5007251;28;20091;-75
2023/09/27 10:56:23;;;;;;;0.40;0.40;;;21.40;99.90;;;;;;5021315;28;20049;-75
2023/09/27 10:58:49;;;;;;;0.30;0.30;;;21.40;99.90;;;;;;5023507;28;20049;-75
2023/09/27 11:01:23;;;;;;;0.52;0.52;;;21.40;99.90;;;;;;5022539;28;20132;-75
2023/09/27 11:03:57;;;;;;;1.17;1.08;;;21.40;99.90;;;;;;5039810;28;20147;-75
2023/09/27 11:06:23;;;;;;;0.35;0.35;;;21.30;99.90;;;;;;5023253;28;20054;-76
2023/09/27 11:08:49;;;;;;;0.60;0.60;;;21.30;99.90;;;;;;5025954;28;20399;-76
2023/09/27 11:11:15;;;;;;;0.20;0.20;;;21.20;99.90;;;;;;5021920;28;20037;-75
2023/09/27 11:13:45;;;;;;;0.55;0.55;;;21.10;99.90;;;;;;5025999;28;20619;-75
2023/09/27 11:16:15;;;;;;;0.20;0.20;;;21.10;99.90;;;;;;5021628;28;20041;-75
2023/09/27 11:18:46;;;;;;;0.40;0.40;;;21.10;99.90;;;;;;5036230;28;20504;-75
2023/09/27 11:21:13;;;;;;;0.38;0.30;;;21.10;99.90;;;;;;5022806;28;20041;-75
2023/09/27 11:24:00;;;;;;;0.30;0.30;;;21.10;99.90;;;;;;5025854;28;20121;-76
2023/09/27 11:26:31;;;;;;;0.47;0.47;;;21.20;99.90;;;;;;5020520;28;20076;-75
2023/09/27 11:29:02;;;;;;;0.22;0.22;;;21.20;99.90;;;;;;5023758;28;20056;-75
2023/09/27 11:31:33;;;;;;;0.30;0.30;;;21.30;99.90;;;;;;5022939;28;20061;-75
2023/09/27 11:34:12;;;;;;;0.20;0.20;;;21.30;99.90;;;;;;5025407;28;20107;-75
2023/09/27 11:36:47;;;;;;;0.20;0.20;;;21.40;99.90;;;;;;5024825;28;20099;-76
2023/09/27 11:39:15;;;;;;;0.10;0.10;;;21.40;99.90;;;;;;5023056;28;20053;-76
2023/09/27 11:41:42;;;;;;;0.20;0.20;;;21.50;99.90;;;;;;5020863;28;20052;-76
2023/09/27 11:44:21;;;;;;;0.30;0.30;;;21.60;99.90;;;;;;5025717;28;20046;-76
2023/09/27 11:46:49;;;;;;;0.30;0.30;;;21.70;99.90;;;;;;5022631;28;20128;-76
2023/09/27 11:49:16;;;;;;;0.28;0.28;;;21.80;99.90;;;;;;5025366;28;20182;-75
2023/09/27 11:51:42;;;;;;;1.85;0.50;;;21.80;99.90;;;;;;5027291;28;20084;-75
2023/09/27 11:54:12;;;;;;;0.30;0.30;;;21.80;99.90;;;;;;5024329;28;20436;-75
2023/09/27 11:56:38;;;;;;;0.50;0.50;;;21.80;99.90;;;;;;5024540;28;20113;-75
2023/09/27 11:59:04;;;;;;;0.30;0.30;;;21.70;99.90;;;;;;5028330;28;20052;-76
2023/09/27 12:01:30;;;;;;;0.32;0.32;;;21.70;99.90;;;;;;5022436;28;20834;-75
2023/09/27 12:03:57;;;;;;;0.20;0.20;;;21.70;99.90;;;;;;5023399;28;20484;-75
2023/09/27 12:06:24;;;;;;;0.38;0.32;;;21.70;99.90;;;;;;5024917;28;20560;-75
2023/09/27 12:08:50;;;;;;;0.30;0.30;;;21.70;99.90;;;;;;5024413;28;20052;-75
2023/09/27 12:11:16;;;;;;;0.20;0.20;;;21.80;99.90;;;;;;5021344;28;20045;-75
2023/09/27 12:13:42;;;;;;;0.40;0.40;;;22.00;99.90;;;;;;5025781;28;20049;-76
2023/09/27 12:16:08;;;;;;;0.30;0.30;;;22.30;99.90;;;;;;5025077;28;20595;-76
2023/09/27 12:18:33;;;;;;;0.32;0.32;;;22.40;99.90;;;;;;5025098;28;20076;-76
2023/09/27 12:21:00;;;;;;;0.47;0.47;;;22.50;99.90;;;;;;5024868;28;20362;-76
2023/09/27 12:23:26;;;;;;;0.52;0.52;;;22.60;99.90;;;;;;5027841;28;20053;-76
2023/09/27 12:25:52;;;;;;;1.42;0.43;;;22.90;99.90;;;;;;5029957;28;20060;-76
2023/09/27 12:28:19;;;;;;;0.45;0.40;;;23.00;99.90;;;;;;5026939;28;20387;-75
2023/09/27 12:30:48;;;;;;;0.28;0.28;;;23.10;99.90;;;;;;5026835;28;20136;-76
2023/09/27 12:33:15;;;;;;;0.32;0.32;;;23.00;99.90;;;;;;5027329;28;21958;-75
2023/09/27 12:35:42;;;;;;;1.00;0.90;;;22.90;99.90;;;;;;5029597;28;20143;-75
2023/09/27 12:38:09;;;;;;;0.35;0.35;;;23.00;99.90;;;;;;5026877;28;20051;-75
2023/09/27 12:40:34;;;;;;;0.25;0.25;;;23.00;99.90;;;;;;5027018;28;20136;-75
2023/09/27 12:43:01;;;;;;;1.75;1.05;;;23.00;99.90;;;;;;5028696;28;20144;-75
2023/09/27 12:45:28;;;;;;;0.50;0.50;;;22.90;99.90;;;;;;5026936;28;20061;-75
2023/09/27 12:47:54;;;;;;;0.20;0.20;;;23.00;99.90;;;;;;5027053;28;20064;-75
2023/09/27 12:50:26;;;;;;;0.63;0.63;;;23.10;99.90;;;;;;5027182;28;20125;-75
2023/09/27 12:52:53;;;;;;;0.88;0.85;;;23.20;99.90;;;;;;5027818;28;20046;-75
2023/09/27 12:55:19;;;;;;;0.60;0.60;;;23.40;99.90;;;;;;5025621;28;20390;-75
2023/09/27 12:57:46;;;;;;;0.70;0.70;;;23.70;99.90;;;;;;5028879;28;20053;-76